Share

Grafton, ND

Cavalier (K2C8) Elev 892 ft | 48.78 °N, 97.63 °W | Change Station
Active Advisory: Flood WarningWind Advisory

Current weather conditions updated 14 minutes ago

Mostly Cloudy
Mostly Cloudy
39 °F
Feels Like 32 °F
N
13
Wind Variable Wind from SE
Gusts 22 mph
Sunrise 6:31 AM
Sunset 8:26 PM
Moon Waning Gibbous

Today is forecast to be Much Warmer than yesterday.

Pressure 29.86 in
Visibility 9.0 miles
Clouds Few 3300 ft
Scattered Clouds 4600 ft
Mostly Cloudy 6000 ft
Windchill 32 °F
Dew Point 32 °F
Humidity 75%
Rainfall 0.00 in
Snow Depth Not available.
UV 0 out of 16
Pollen 9.00 out of 12
Air Quality Not available.
Flu Activity Sporadic
METAR K2C8 190515Z AUTO 13011G19KT 9SM UP FEW033 SCT046 BKN060 04/00 A2986 RMK AO2

More Conditions Fewer Conditions

Pressure 29.86 in
Visibility 9.0 miles
Clouds Few 3300 ft
Scattered Clouds 4600 ft
Mostly Cloudy 6000 ft
Windchill 32 °F
Dew Point 32 °F
Humidity 75%
Rainfall 0.00 in
Snow Depth Not available.
UV 0 out of 16
Pollen 9.00 out of 12
Air Quality Not available.
Flu Activity Sporadic
METAR K2C8 190515Z AUTO 13011G19KT 9SM UP FEW033 SCT046 BKN060 04/00 A2986 RMK AO2

More Conditions Fewer Conditions

10-Day Weather Forecast

Almanac

Astronomy

Apr. 19, 2014 Rise Set
Actual Time 6:31 AM CDT 8:26 PM CDT
Civil Twilight 5:58 AM CDT 9:00 PM CDT
Nautical Twilight 5:17 AM CDT 9:41 PM CDT
Astronomical Twilight 4:31 AM CDT 10:27 PM CDT
Moon 12:22 AM CDT 9:40 AM CDT
Length of Visible Light 15h 01m
Length of Day
13h 54m
Tomorrow will be 3m 19s longer.
Waning Gibbous, 83% of the Moon is Illuminated
Today
Waning Gibbous
Apr 22
Last Quarter
Apr 29
New
May 6
First Quarter
May 14
Full

Today's Extremes

State Highs State Lows

Community

  • Sunset Silhouettes
    Sunset Silhouettes
  • FL sunset Perico Isle
    FL sunset Perico Isle
  • Cloudy spring view
    Cloudy spring view
  • Old barn
    Old barn
  • What's for Lunch?
    What's for Lunch?

WunderPhotos

Upload Photos

1,702,647 photos uploaded!

WunderBlogs® & News

Nearby

Snow Depth

Station Depth Elevation
No new snow has been reported.

Coastal Water Temperatures

Place Temperature
No Stations Reporting

Earthquake Activity

City Distance Mag. Time & Date
No recent earthquake activity has been reported nearby.
Minimum magnitude displayed is 2.5.

Nearby Weather Stations

There are no personal weather stations in this area.

What do you think?

We're not finished. Please let us know what you like, what you don't like, and what you are still missing.